createdAt,value
2023-03-18T00:00:10.170Z,100.00
2023-03-18T00:02:38.916Z,100.00
2023-03-18T00:05:07.621Z,100.00
2023-03-18T00:07:36.322Z,100.00
2023-03-18T00:10:05.077Z,100.00
2023-03-18T00:12:33.244Z,100.00
2023-03-18T00:15:01.150Z,100.00
2023-03-18T00:17:28.154Z,100.00
2023-03-18T00:19:55.325Z,100.00
2023-03-18T00:22:22.846Z,100.00
2023-03-18T00:24:49.531Z,100.00
2023-03-18T00:27:16.585Z,100.00
2023-03-18T00:29:43.960Z,100.00
2023-03-18T00:32:11.079Z,100.00
2023-03-18T00:34:37.852Z,100.00
2023-03-18T00:37:05.196Z,100.00
2023-03-18T00:39:33.206Z,100.00
2023-03-18T00:42:08.199Z,100.00
2023-03-18T00:44:34.952Z,100.00
2023-03-18T00:47:01.863Z,100.00
2023-03-18T00:49:28.772Z,100.00
2023-03-18T00:51:55.508Z,100.00
2023-03-18T00:54:22.600Z,100.00
2023-03-18T00:56:49.746Z,100.00
2023-03-18T00:59:16.905Z,100.00
2023-03-18T01:01:43.693Z,100.00
2023-03-18T01:04:10.424Z,100.00
2023-03-18T01:06:38.691Z,100.00
2023-03-18T01:09:07.057Z,100.00
2023-03-18T01:11:34.021Z,100.00
2023-03-18T01:14:01.205Z,100.00
2023-03-18T01:16:28.405Z,100.00
2023-03-18T01:18:55.219Z,100.00
2023-03-18T01:21:22.632Z,100.00
2023-03-18T01:23:49.467Z,100.00
2023-03-18T01:26:16.912Z,100.00
2023-03-18T01:28:43.744Z,100.00
2023-03-18T01:31:10.439Z,100.00
2023-03-18T01:33:37.196Z,100.00
2023-03-18T01:36:05.333Z,100.00
2023-03-18T01:38:32.305Z,100.00
2023-03-18T01:41:00.356Z,100.00
2023-03-18T01:43:34.233Z,100.00
2023-03-18T01:46:02.896Z,100.00
2023-03-18T01:48:33.270Z,100.00
2023-03-18T01:51:05.461Z,100.00
2023-03-18T01:53:39.212Z,100.00
2023-03-18T01:56:07.020Z,100.00
2023-03-18T01:58:37.960Z,100.00
2023-03-18T02:01:14.325Z,100.00
2023-03-18T02:03:43.035Z,100.00
2023-03-18T02:06:10.250Z,100.00
2023-03-18T02:08:39.036Z,100.00
2023-03-18T02:11:07.671Z,100.00
2023-03-18T02:13:40.131Z,100.00
2023-03-18T02:16:19.817Z,100.00
2023-03-18T02:18:51.272Z,100.00
2023-03-18T02:21:27.826Z,100.00
2023-03-18T02:24:03.492Z,100.00
2023-03-18T02:26:45.441Z,100.00
2023-03-18T02:29:14.764Z,100.00
2023-03-18T02:31:42.651Z,100.00
2023-03-18T02:34:09.976Z,100.00
2023-03-18T02:36:36.934Z,100.00
2023-03-18T02:39:04.852Z,100.00
2023-03-18T02:41:34.515Z,100.00
2023-03-18T02:44:01.811Z,100.00
2023-03-18T02:46:54.241Z,100.00
2023-03-18T02:49:22.704Z,100.00
2023-03-18T02:51:50.088Z,100.00
2023-03-18T02:54:20.560Z,100.00
2023-03-18T02:56:47.815Z,100.00
2023-03-18T02:59:15.301Z,100.00
2023-03-18T03:01:44.394Z,100.00
2023-03-18T03:04:12.400Z,100.00
2023-03-18T03:06:39.787Z,100.00
2023-03-18T03:09:08.357Z,100.00
2023-03-18T03:11:35.488Z,100.00
2023-03-18T03:14:02.456Z,100.00
2023-03-18T03:16:29.653Z,100.00
2023-03-18T03:18:56.336Z,100.00
2023-03-18T03:21:23.364Z,100.00
2023-03-18T03:23:52.386Z,100.00
2023-03-18T03:26:19.483Z,100.00
2023-03-18T03:28:46.870Z,100.00
2023-03-18T03:31:14.263Z,100.00
2023-03-18T03:33:41.837Z,100.00
2023-03-18T03:36:14.802Z,100.00
2023-03-18T03:38:41.845Z,100.00
2023-03-18T03:41:10.546Z,100.00
2023-03-18T03:43:40.688Z,100.00
2023-03-18T03:46:09.583Z,100.00
2023-03-18T03:48:37.087Z,100.00
2023-03-18T03:51:04.506Z,100.00
2023-03-18T03:53:31.322Z,100.00
2023-03-18T03:55:59.237Z,100.00
2023-03-18T03:58:26.804Z,100.00
2023-03-18T04:00:53.485Z,100.00
2023-03-18T04:03:20.344Z,100.00
2023-03-18T04:05:47.811Z,100.00
2023-03-18T04:08:14.637Z,100.00
2023-03-18T04:10:41.507Z,100.00
2023-03-18T04:13:08.997Z,100.00
2023-03-18T04:15:36.010Z,100.00
2023-03-18T04:18:07.055Z,100.00
2023-03-18T04:20:35.766Z,100.00
2023-03-18T04:23:02.828Z,100.00
2023-03-18T04:25:30.213Z,100.00
2023-03-18T04:27:57.734Z,100.00
2023-03-18T04:30:25.728Z,100.00
2023-03-18T04:32:53.184Z,100.00
2023-03-18T04:35:21.222Z,100.00
2023-03-18T04:37:48.809Z,100.00
2023-03-18T04:40:15.845Z,100.00
2023-03-18T04:42:43.231Z,100.00
2023-03-18T04:45:10.439Z,100.00
2023-03-18T04:47:38.265Z,100.00
2023-03-18T04:50:05.773Z,100.00
2023-03-18T04:52:32.492Z,100.00
2023-03-18T04:54:59.219Z,100.00
2023-03-18T04:57:26.163Z,100.00
2023-03-18T04:59:52.963Z,100.00
2023-03-18T05:02:20.040Z,100.00
2023-03-18T05:04:46.901Z,100.00
2023-03-18T05:07:15.493Z,100.00
2023-03-18T05:09:42.674Z,100.00
2023-03-18T05:12:14.973Z,100.00
2023-03-18T05:14:45.439Z,100.00
2023-03-18T05:17:17.953Z,100.00
2023-03-18T05:19:46.558Z,100.00
2023-03-18T05:22:15.412Z,100.00
2023-03-18T05:24:43.344Z,100.00
2023-03-18T05:27:10.840Z,100.00
2023-03-18T05:29:38.595Z,100.00
2023-03-18T05:32:07.138Z,100.00
2023-03-18T05:34:35.840Z,100.00
2023-03-18T05:37:03.035Z,100.00
2023-03-18T05:39:29.731Z,100.00
2023-03-18T05:41:56.734Z,100.00
2023-03-18T05:44:23.787Z,100.00
2023-03-18T05:46:52.317Z,100.00
2023-03-18T05:49:19.819Z,100.00
2023-03-18T05:51:46.799Z,100.00
2023-03-18T05:54:14.204Z,100.00
2023-03-18T05:56:43.296Z,100.00
2023-03-18T05:59:10.212Z,100.00
2023-03-18T06:01:37.744Z,100.00
2023-03-18T06:04:06.308Z,100.00
2023-03-18T06:06:33.901Z,100.00
2023-03-18T06:09:01.070Z,100.00
2023-03-18T06:11:29.504Z,100.00
2023-03-18T06:13:56.854Z,100.00
2023-03-18T06:16:23.729Z,100.00
2023-03-18T06:18:50.830Z,100.00
2023-03-18T06:21:17.870Z,100.00
2023-03-18T06:23:45.161Z,100.00
2023-03-18T06:26:11.740Z,100.00
2023-03-18T06:28:39.174Z,100.00
2023-03-18T06:31:05.974Z,100.00
2023-03-18T06:33:33.024Z,100.00
2023-03-18T06:36:01.433Z,100.00
2023-03-18T06:38:28.940Z,100.00
2023-03-18T06:40:56.825Z,100.00
2023-03-18T06:43:23.606Z,100.00
2023-03-18T06:45:50.831Z,100.00
2023-03-18T06:48:18.046Z,100.00
2023-03-18T06:50:45.087Z,100.00
2023-03-18T06:53:12.759Z,100.00
2023-03-18T06:55:39.700Z,100.00
2023-03-18T06:58:06.421Z,100.00
2023-03-18T07:00:34.219Z,100.00
2023-03-18T07:03:01.621Z,100.00
2023-03-18T07:05:28.901Z,100.00
2023-03-18T07:07:55.763Z,100.00
2023-03-18T07:10:27.503Z,100.00
2023-03-18T07:12:54.415Z,100.00
2023-03-18T07:15:22.706Z,100.00
2023-03-18T07:17:50.314Z,100.00
2023-03-18T07:20:17.458Z,100.00
2023-03-18T07:22:45.386Z,100.00
2023-03-18T07:25:12.464Z,100.00
2023-03-18T07:27:40.133Z,100.00
2023-03-18T07:30:09.656Z,100.00
2023-03-18T07:32:37.489Z,100.00
2023-03-18T07:35:05.675Z,100.00
2023-03-18T07:37:33.553Z,100.00
2023-03-18T07:40:00.197Z,100.00
2023-03-18T07:42:26.968Z,100.00
2023-03-18T07:44:53.712Z,100.00
2023-03-18T07:47:21.049Z,100.00
2023-03-18T07:49:47.873Z,100.00
2023-03-18T07:52:15.060Z,100.00
2023-03-18T07:54:41.714Z,100.00
2023-03-18T07:57:08.634Z,100.00
2023-03-18T07:59:35.619Z,100.00
2023-03-18T08:02:02.963Z,100.00
2023-03-18T08:04:30.113Z,100.00
2023-03-18T08:06:58.022Z,100.00
2023-03-18T08:09:25.131Z,100.00
2023-03-18T08:11:51.829Z,100.00
2023-03-18T08:14:18.631Z,100.00
2023-03-18T08:16:45.423Z,100.00
2023-03-18T08:19:12.393Z,100.00
2023-03-18T08:21:39.691Z,100.00
2023-03-18T08:24:06.901Z,100.00
2023-03-18T08:26:33.651Z,100.00
2023-03-18T08:29:00.434Z,100.00
2023-03-18T08:31:27.207Z,100.00
2023-03-18T08:33:56.862Z,100.00
2023-03-18T08:36:24.010Z,100.00
2023-03-18T08:38:50.935Z,100.00
2023-03-18T08:41:17.692Z,100.00
2023-03-18T08:43:45.226Z,100.00
2023-03-18T08:46:12.063Z,100.00
2023-03-18T08:48:38.796Z,100.00
2023-03-18T08:51:09.405Z,100.00
2023-03-18T08:53:36.735Z,100.00
2023-03-18T08:56:05.963Z,100.00
2023-03-18T08:58:32.801Z,100.00
2023-03-18T09:00:59.817Z,100.00
2023-03-18T09:03:26.650Z,100.00
2023-03-18T09:05:53.944Z,100.00
2023-03-18T09:08:22.074Z,100.00
2023-03-18T09:10:52.377Z,100.00
2023-03-18T09:13:19.527Z,100.00
2023-03-18T09:15:46.466Z,100.00
2023-03-18T09:18:16.557Z,100.00
2023-03-18T09:20:43.403Z,99.90
2023-03-18T09:23:10.340Z,98.76
2023-03-18T09:25:37.145Z,99.96
2023-03-18T09:28:03.955Z,96.63
2023-03-18T09:30:30.750Z,97.96
2023-03-18T09:32:58.084Z,95.50
2023-03-18T09:35:24.891Z,94.75
2023-03-18T09:37:52.193Z,97.26
2023-03-18T09:40:25.248Z,94.60
2023-03-18T09:43:13.932Z,93.89
2023-03-18T09:46:00.640Z,92.17
2023-03-18T09:48:55.403Z,93.74
2023-03-18T09:51:59.377Z,91.67
2023-03-18T09:54:41.808Z,92.56
2023-03-18T09:57:17.192Z,94.68
2023-03-18T09:59:58.727Z,90.80
2023-03-18T10:02:41.444Z,92.43
2023-03-18T10:05:18.233Z,90.60
2023-03-18T10:07:47.791Z,89.10
2023-03-18T10:10:31.116Z,89.16
2023-03-18T10:13:13.402Z,91.58
2023-03-18T10:15:43.378Z,91.84
2023-03-18T10:18:13.333Z,89.42
2023-03-18T10:21:04.807Z,91.35
2023-03-18T10:23:52.833Z,87.88
2023-03-18T10:26:46.270Z,91.58
2023-03-18T10:29:40.829Z,88.95
2023-03-18T10:32:46.341Z,87.52
2023-03-18T10:35:19.703Z,89.59
2023-03-18T10:38:26.663Z,88.34
2023-03-18T10:40:53.772Z,88.53
2023-03-18T10:43:25.257Z,87.25
2023-03-18T10:46:01.108Z,86.59
2023-03-18T10:48:33.882Z,85.45
2023-03-18T10:51:12.136Z,84.65
2023-03-18T10:53:51.197Z,85.79
2023-03-18T10:56:18.028Z,86.09
2023-03-18T10:58:46.286Z,79.54
2023-03-18T11:01:17.399Z,79.42
2023-03-18T11:03:54.582Z,77.92
2023-03-18T11:06:47.698Z,79.50
2023-03-18T11:09:20.146Z,81.77
2023-03-18T11:11:51.016Z,79.28
2023-03-18T11:14:22.985Z,79.97
2023-03-18T11:16:57.973Z,81.91
2023-03-18T11:19:42.707Z,80.47
2023-03-18T11:22:10.261Z,76.72
2023-03-18T11:24:45.040Z,75.02
2023-03-18T11:27:14.493Z,73.19
2023-03-18T11:29:46.620Z,75.01
2023-03-18T11:32:28.898Z,72.65
2023-03-18T11:35:06.629Z,75.54
2023-03-18T11:37:38.624Z,76.78
2023-03-18T11:40:14.164Z,74.54
2023-03-18T11:42:42.250Z,70.07
2023-03-18T11:45:29.803Z,70.41
2023-03-18T11:47:57.509Z,68.46
2023-03-18T11:50:26.334Z,68.17
2023-03-18T11:53:08.744Z,68.94
2023-03-18T11:55:39.563Z,67.44
2023-03-18T11:58:31.518Z,68.55
2023-03-18T12:01:13.828Z,67.76
2023-03-18T12:04:11.050Z,66.30
2023-03-18T12:07:13.192Z,62.45
2023-03-18T12:09:47.368Z,62.86
2023-03-18T12:12:24.404Z,66.43
2023-03-18T12:15:02.140Z,64.30
2023-03-18T12:18:01.028Z,64.82
2023-03-18T12:20:40.476Z,63.50
2023-03-18T12:23:38.236Z,62.08
2023-03-18T12:26:31.503Z,62.03
2023-03-18T12:29:28.300Z,61.71
2023-03-18T12:32:09.131Z,63.08
2023-03-18T12:34:49.308Z,65.02
2023-03-18T12:37:47.109Z,62.07
2023-03-18T12:40:35.276Z,60.34
2023-03-18T12:43:34.228Z,60.79
2023-03-18T12:46:11.678Z,60.20
2023-03-18T12:48:47.009Z,54.68
2023-03-18T12:51:17.259Z,55.31
2023-03-18T12:53:53.838Z,57.15
2023-03-18T12:56:23.749Z,56.07
2023-03-18T12:59:17.239Z,55.27
2023-03-18T13:01:56.088Z,56.54
2023-03-18T13:04:24.906Z,57.37
2023-03-18T13:07:02.114Z,57.29
2023-03-18T13:09:39.752Z,56.98
2023-03-18T13:12:29.707Z,57.57
2023-03-18T13:15:07.790Z,57.13
2023-03-18T13:17:48.163Z,56.00
2023-03-18T13:20:33.874Z,56.80
2023-03-18T13:23:14.016Z,58.32
2023-03-18T13:25:48.910Z,57.50
2023-03-18T13:28:47.791Z,56.12
2023-03-18T13:31:33.499Z,56.68
2023-03-18T13:34:06.331Z,53.77
2023-03-18T13:36:44.969Z,55.46
2023-03-18T13:39:19.919Z,55.15
2023-03-18T13:41:58.632Z,56.57
2023-03-18T13:44:39.851Z,54.37
2023-03-18T13:47:08.319Z,54.84
2023-03-18T13:49:39.249Z,53.03
2023-03-18T13:52:22.711Z,50.16
2023-03-18T13:54:50.218Z,49.88
2023-03-18T13:57:27.182Z,49.84
2023-03-18T14:00:30.650Z,49.19
2023-03-18T14:03:14.498Z,50.34
2023-03-18T14:05:42.708Z,49.92
2023-03-18T14:08:31.801Z,50.79
2023-03-18T14:11:26.176Z,51.36
2023-03-18T14:14:05.788Z,51.88
2023-03-18T14:16:53.062Z,49.02
2023-03-18T14:19:24.308Z,48.52
2023-03-18T14:22:28.471Z,50.44
2023-03-18T14:25:13.422Z,48.21
2023-03-18T14:27:52.669Z,47.87
2023-03-18T14:30:34.886Z,48.69
2023-03-18T14:33:04.113Z,52.00
2023-03-18T14:35:36.646Z,48.79
2023-03-18T14:38:11.624Z,49.46
2023-03-18T14:40:41.994Z,50.10
2023-03-18T14:43:14.234Z,48.48
2023-03-18T14:45:49.458Z,49.66
2023-03-18T14:48:35.480Z,50.32
2023-03-18T14:51:14.776Z,50.29
2023-03-18T14:53:48.643Z,51.38
2023-03-18T14:56:19.913Z,50.30
2023-03-18T14:58:47.693Z,50.90
2023-03-18T15:01:17.855Z,50.13
2023-03-18T15:03:47.528Z,49.45
2023-03-18T15:06:20.394Z,50.44
2023-03-18T15:09:09.780Z,50.49
2023-03-18T15:11:41.568Z,50.58
2023-03-18T15:14:31.757Z,51.51
2023-03-18T15:17:14.042Z,52.78
2023-03-18T15:19:41.214Z,52.45
2023-03-18T15:22:08.804Z,53.57
2023-03-18T15:24:35.789Z,56.39
2023-03-18T15:27:07.817Z,54.15
2023-03-18T15:29:52.977Z,52.17
2023-03-18T15:32:31.702Z,55.10
2023-03-18T15:35:26.777Z,55.74
2023-03-18T15:38:26.916Z,53.59
2023-03-18T15:41:12.398Z,53.10
2023-03-18T15:43:47.149Z,52.95
2023-03-18T15:46:27.735Z,53.64
2023-03-18T15:48:56.027Z,55.30
2023-03-18T15:51:40.382Z,52.67
2023-03-18T15:54:16.456Z,55.43
2023-03-18T15:56:48.821Z,54.66
2023-03-18T15:59:26.145Z,54.76
2023-03-18T16:01:56.505Z,56.06
2023-03-18T16:04:24.461Z,55.11
2023-03-18T16:06:52.641Z,56.01
2023-03-18T16:09:24.935Z,61.66
2023-03-18T16:11:54.614Z,64.09
2023-03-18T16:14:24.370Z,63.64
2023-03-18T16:16:51.644Z,72.94
2023-03-18T16:19:28.410Z,80.33
2023-03-18T16:21:57.003Z,82.70
2023-03-18T16:24:24.523Z,86.42
2023-03-18T16:26:55.231Z,87.70
2023-03-18T16:29:33.262Z,84.86
2023-03-18T16:32:00.857Z,88.58
2023-03-18T16:34:28.082Z,92.40
2023-03-18T16:36:55.398Z,94.72
2023-03-18T16:39:27.487Z,95.83
2023-03-18T16:41:54.875Z,95.87
2023-03-18T16:44:23.546Z,92.17
2023-03-18T16:46:53.868Z,92.52
2023-03-18T16:49:23.362Z,93.14
2023-03-18T16:51:50.653Z,92.96
2023-03-18T16:54:27.659Z,95.29
2023-03-18T16:56:57.510Z,99.15
2023-03-18T16:59:27.944Z,99.13
2023-03-18T17:01:54.695Z,100.00
2023-03-18T17:04:31.352Z,100.00
2023-03-18T17:06:59.853Z,100.00
2023-03-18T17:09:27.029Z,100.00
2023-03-18T17:11:58.550Z,100.00
2023-03-18T17:14:25.291Z,100.00
2023-03-18T17:16:52.190Z,100.00
2023-03-18T17:19:22.992Z,100.00
2023-03-18T17:21:50.091Z,100.00
2023-03-18T17:24:16.857Z,100.00
2023-03-18T17:26:44.332Z,100.00
2023-03-18T17:29:28.237Z,100.00
2023-03-18T17:31:55.840Z,100.00
2023-03-18T17:34:24.107Z,100.00
2023-03-18T17:36:51.588Z,100.00
2023-03-18T17:39:18.236Z,100.00
2023-03-18T17:41:44.985Z,100.00
2023-03-18T17:44:31.913Z,100.00
2023-03-18T17:46:58.697Z,100.00
2023-03-18T17:49:27.081Z,100.00
2023-03-18T17:51:54.875Z,100.00
2023-03-18T17:54:25.316Z,100.00
2023-03-18T17:56:53.067Z,100.00
2023-03-18T17:59:20.592Z,100.00
2023-03-18T18:01:48.809Z,100.00
2023-03-18T18:04:20.733Z,100.00
2023-03-18T18:06:49.258Z,100.00
2023-03-18T18:09:16.724Z,100.00
2023-03-18T18:11:46.539Z,100.00
2023-03-18T18:14:25.097Z,100.00
2023-03-18T18:16:53.825Z,100.00
2023-03-18T18:19:20.669Z,100.00
2023-03-18T18:21:49.198Z,100.00
2023-03-18T18:24:23.212Z,100.00
2023-03-18T18:26:50.440Z,100.00
2023-03-18T18:29:20.719Z,100.00
2023-03-18T18:31:48.043Z,100.00
2023-03-18T18:34:15.704Z,100.00
2023-03-18T18:36:43.186Z,100.00
2023-03-18T18:39:10.073Z,100.00
2023-03-18T18:41:36.991Z,100.00
2023-03-18T18:44:03.705Z,100.00
2023-03-18T18:46:31.023Z,100.00
2023-03-18T18:48:57.926Z,100.00
2023-03-18T18:51:25.411Z,100.00
2023-03-18T18:53:53.816Z,100.00
2023-03-18T18:56:36.601Z,100.00
2023-03-18T18:59:23.124Z,100.00
2023-03-18T19:01:50.914Z,100.00
2023-03-18T19:04:17.943Z,100.00
2023-03-18T19:06:45.770Z,100.00
2023-03-18T19:09:18.924Z,100.00
2023-03-18T19:11:46.800Z,100.00
2023-03-18T19:14:25.431Z,100.00
2023-03-18T19:16:53.812Z,100.00
2023-03-18T19:19:25.098Z,100.00
2023-03-18T19:21:52.053Z,100.00
2023-03-18T19:24:37.149Z,100.00
2023-03-18T19:27:06.272Z,100.00
2023-03-18T19:29:33.140Z,100.00
2023-03-18T19:32:01.595Z,100.00
2023-03-18T19:34:29.859Z,100.00
2023-03-18T19:36:56.969Z,100.00
2023-03-18T19:39:25.072Z,100.00
2023-03-18T19:41:52.146Z,100.00
2023-03-18T19:44:21.155Z,100.00
2023-03-18T19:46:49.333Z,100.00
2023-03-18T19:49:21.845Z,100.00
2023-03-18T19:51:50.125Z,100.00
2023-03-18T19:54:36.798Z,100.00
2023-03-18T19:57:06.816Z,100.00
2023-03-18T19:59:39.169Z,100.00
2023-03-18T20:02:25.944Z,100.00
2023-03-18T20:04:54.602Z,100.00
2023-03-18T20:07:23.173Z,100.00
2023-03-18T20:09:50.372Z,100.00
2023-03-18T20:12:26.183Z,100.00
2023-03-18T20:14:52.847Z,100.00
2023-03-18T20:17:42.136Z,100.00
2023-03-18T20:20:23.011Z,100.00
2023-03-18T20:22:53.040Z,100.00
2023-03-18T20:25:36.695Z,100.00
2023-03-18T20:28:04.735Z,100.00
2023-03-18T20:30:36.271Z,100.00
2023-03-18T20:33:06.672Z,100.00
2023-03-18T20:35:36.210Z,100.00
2023-03-18T20:38:14.393Z,100.00
2023-03-18T20:40:42.560Z,100.00
2023-03-18T20:43:15.161Z,100.00
2023-03-18T20:45:42.045Z,100.00
2023-03-18T20:48:09.726Z,100.00
2023-03-18T20:50:37.076Z,100.00
2023-03-18T20:53:05.077Z,100.00
2023-03-18T20:55:33.156Z,100.00
2023-03-18T20:58:00.804Z,100.00
2023-03-18T21:00:33.180Z,100.00
2023-03-18T21:03:02.076Z,100.00
2023-03-18T21:05:28.784Z,100.00
2023-03-18T21:07:55.967Z,100.00
2023-03-18T21:10:24.839Z,100.00
2023-03-18T21:12:52.126Z,100.00
2023-03-18T21:15:24.819Z,100.00
2023-03-18T21:17:51.883Z,100.00
2023-03-18T21:20:29.145Z,100.00
2023-03-18T21:22:57.146Z,100.00
2023-03-18T21:25:26.462Z,100.00
2023-03-18T21:27:53.820Z,100.00
2023-03-18T21:30:22.222Z,100.00
2023-03-18T21:32:50.652Z,100.00
2023-03-18T21:35:25.729Z,100.00
2023-03-18T21:37:53.097Z,100.00
2023-03-18T21:40:22.484Z,100.00
2023-03-18T21:42:50.121Z,100.00
2023-03-18T21:45:19.357Z,100.00
2023-03-18T21:47:46.172Z,100.00
2023-03-18T21:50:24.186Z,100.00
2023-03-18T21:52:51.486Z,100.00
2023-03-18T21:55:18.304Z,100.00
2023-03-18T21:57:47.592Z,100.00
2023-03-18T22:00:17.605Z,100.00
2023-03-18T22:02:44.209Z,100.00
2023-03-18T22:05:21.842Z,100.00
2023-03-18T22:07:50.460Z,100.00
2023-03-18T22:10:19.918Z,100.00
2023-03-18T22:12:46.556Z,100.00
2023-03-18T22:15:35.967Z,100.00
2023-03-18T22:18:03.169Z,100.00
2023-03-18T22:20:29.849Z,100.00
2023-03-18T22:22:56.803Z,100.00
2023-03-18T22:25:29.904Z,100.00
2023-03-18T22:27:59.925Z,100.00
2023-03-18T22:30:28.447Z,100.00
2023-03-18T22:32:56.244Z,100.00
2023-03-18T22:35:25.564Z,100.00
2023-03-18T22:37:52.456Z,100.00
2023-03-18T22:40:21.904Z,100.00
2023-03-18T22:42:51.273Z,100.00
2023-03-18T22:45:29.684Z,100.00
2023-03-18T22:47:58.180Z,100.00
2023-03-18T22:50:27.330Z,100.00
2023-03-18T22:53:00.370Z,100.00
2023-03-18T22:55:29.881Z,100.00
2023-03-18T22:57:56.519Z,100.00
2023-03-18T23:00:25.926Z,100.00
2023-03-18T23:02:54.197Z,100.00
2023-03-18T23:05:22.144Z,100.00
2023-03-18T23:07:48.917Z,100.00
2023-03-18T23:10:16.423Z,100.00
2023-03-18T23:12:43.568Z,100.00
2023-03-18T23:15:16.210Z,100.00
2023-03-18T23:17:43.767Z,100.00
2023-03-18T23:20:11.214Z,100.00
2023-03-18T23:22:37.819Z,100.00
2023-03-18T23:25:04.975Z,100.00
2023-03-18T23:27:31.548Z,100.00
2023-03-18T23:29:58.137Z,100.00
2023-03-18T23:32:25.296Z,100.00
2023-03-18T23:34:52.386Z,100.00
2023-03-18T23:37:19.241Z,100.00
2023-03-18T23:39:48.807Z,100.00
2023-03-18T23:42:17.278Z,100.00
2023-03-18T23:44:44.184Z,100.00
2023-03-18T23:47:11.862Z,100.00
2023-03-18T23:49:38.788Z,100.00
2023-03-18T23:52:15.832Z,100.00
2023-03-18T23:54:42.761Z,100.00
2023-03-18T23:57:10.788Z,100.00
2023-03-18T23:59:38.011Z,100.00
